createdAt,value
2024-02-12T00:01:05.324Z,6.98
2024-02-12T00:03:37.250Z,6.96
2024-02-12T00:06:06.314Z,6.93
2024-02-12T00:08:33.966Z,6.92
2024-02-12T00:11:01.627Z,6.95
2024-02-12T00:13:29.252Z,7.00
2024-02-12T00:15:56.818Z,7.01
2024-02-12T00:18:24.801Z,7.01
2024-02-12T00:20:53.608Z,6.98
2024-02-12T00:23:25.239Z,6.94
2024-02-12T00:25:54.386Z,6.90
2024-02-12T00:28:23.924Z,6.89
2024-02-12T00:30:51.431Z,6.90
2024-02-12T00:33:19.080Z,6.88
2024-02-12T00:35:46.684Z,6.86
2024-02-12T00:38:14.393Z,6.81
2024-02-12T00:40:41.970Z,6.78
2024-02-12T00:43:10.260Z,6.74
2024-02-12T00:45:37.792Z,6.77
2024-02-12T00:48:05.774Z,6.83
2024-02-12T00:50:36.470Z,6.85
2024-02-12T00:53:04.180Z,6.82
2024-02-12T00:55:31.734Z,6.80
2024-02-12T00:57:59.334Z,6.77
2024-02-12T01:00:28.070Z,6.79
2024-02-12T01:02:55.631Z,6.83
2024-02-12T01:05:24.382Z,6.84
2024-02-12T01:07:52.115Z,6.82
2024-02-12T01:10:19.574Z,6.79
2024-02-12T01:12:47.111Z,6.75
2024-02-12T01:15:16.894Z,6.74
2024-02-12T01:17:47.279Z,6.76
2024-02-12T01:20:18.918Z,6.81
2024-02-12T01:22:46.465Z,6.83
2024-02-12T01:25:14.043Z,6.81
2024-02-12T01:27:41.583Z,6.77
2024-02-12T01:30:10.056Z,6.69
2024-02-12T01:32:37.732Z,6.61
2024-02-12T01:35:07.247Z,6.54
2024-02-12T01:37:34.989Z,6.45
2024-02-12T01:40:02.522Z,6.43
2024-02-12T01:42:30.187Z,6.43
2024-02-12T01:45:13.765Z,6.42
2024-02-12T01:47:42.942Z,6.39
2024-02-12T01:50:13.438Z,6.36
2024-02-12T01:52:41.956Z,6.35
2024-02-12T01:55:09.795Z,6.38
2024-02-12T01:57:37.311Z,6.42
2024-02-12T02:00:06.601Z,6.42
2024-02-12T02:02:44.556Z,6.42
2024-02-12T02:05:13.437Z,6.41
2024-02-12T02:07:41.423Z,6.38
2024-02-12T02:10:10.563Z,6.34
2024-02-12T02:12:38.333Z,6.31
2024-02-12T02:15:11.388Z,6.30
2024-02-12T02:17:41.016Z,6.27
2024-02-12T02:20:13.659Z,6.24
2024-02-12T02:22:41.516Z,6.21
2024-02-12T02:25:12.892Z,6.18
2024-02-12T02:27:40.515Z,6.16
2024-02-12T02:30:11.324Z,6.19
2024-02-12T02:32:41.553Z,6.20
2024-02-12T02:35:09.587Z,6.22
2024-02-12T02:37:37.393Z,6.24
2024-02-12T02:40:05.474Z,6.24
2024-02-12T02:42:33.058Z,6.26
2024-02-12T02:45:00.731Z,6.29
2024-02-12T02:47:28.323Z,6.33
2024-02-12T02:49:57.477Z,6.37
2024-02-12T02:52:25.665Z,6.41
2024-02-12T02:54:53.496Z,6.39
2024-02-12T02:57:22.134Z,6.38
2024-02-12T02:59:49.658Z,6.38
2024-02-12T03:02:17.158Z,6.39
2024-02-12T03:04:44.822Z,6.43
2024-02-12T03:07:13.153Z,6.47
2024-02-12T03:09:40.683Z,6.48
2024-02-12T03:12:08.456Z,6.50
2024-02-12T03:14:37.228Z,6.51
2024-02-12T03:17:05.013Z,6.51
2024-02-12T03:19:32.617Z,6.46
2024-02-12T03:22:00.043Z,6.43
2024-02-12T03:24:29.409Z,6.45
2024-02-12T03:26:59.498Z,6.47
2024-02-12T03:29:32.478Z,6.50
2024-02-12T03:32:00.179Z,6.52
2024-02-12T03:34:32.478Z,6.52
2024-02-12T03:37:00.063Z,6.50
2024-02-12T03:39:27.768Z,6.47
2024-02-12T03:41:55.420Z,6.48
2024-02-12T03:44:22.967Z,6.51
2024-02-12T03:46:50.420Z,6.50
2024-02-12T03:49:36.628Z,6.45
2024-02-12T03:52:22.693Z,6.41
2024-02-12T03:55:08.781Z,6.32
2024-02-12T03:57:57.981Z,6.35
2024-02-12T04:00:25.862Z,6.40
2024-02-12T04:02:53.400Z,6.35
2024-02-12T04:05:23.234Z,6.30
2024-02-12T04:07:50.824Z,6.29
2024-02-12T04:10:18.274Z,6.28
2024-02-12T04:12:49.094Z,6.33
2024-02-12T04:15:17.267Z,6.41
2024-02-12T04:17:45.133Z,6.46
2024-02-12T04:20:12.946Z,6.47
2024-02-12T04:22:40.805Z,6.46
2024-02-12T04:25:11.641Z,6.44
2024-02-12T04:27:42.692Z,6.40
2024-02-12T04:30:11.994Z,6.41
2024-02-12T04:32:39.805Z,6.47
2024-02-12T04:35:08.156Z,6.50
2024-02-12T04:37:35.617Z,6.47
2024-02-12T04:43:00.372Z,6.42
2024-02-12T04:45:28.831Z,6.40
2024-02-12T04:47:57.410Z,6.46
2024-02-12T04:50:25.172Z,6.48
2024-02-12T04:52:52.834Z,6.47
2024-02-12T04:55:20.523Z,6.41
2024-02-12T04:57:48.224Z,6.34
2024-02-12T05:00:16.866Z,6.30
2024-02-12T05:02:44.587Z,6.29
2024-02-12T05:05:13.155Z,6.33
2024-02-12T05:07:41.472Z,6.36
2024-02-12T05:10:09.298Z,6.33
2024-02-12T05:12:36.819Z,6.29
2024-02-12T05:15:05.288Z,6.27
2024-02-12T05:17:53.853Z,6.29
2024-02-12T05:20:43.547Z,6.33
2024-02-12T05:23:11.221Z,6.29
2024-02-12T05:25:39.442Z,6.24
2024-02-12T05:28:06.962Z,6.23
2024-02-12T05:30:34.549Z,6.22
2024-02-12T05:33:02.883Z,6.20
2024-02-12T05:35:32.141Z,6.18
2024-02-12T05:37:59.855Z,6.22
2024-02-12T05:40:27.537Z,6.26
2024-02-12T05:42:55.140Z,6.30
2024-02-12T05:45:22.748Z,6.31
2024-02-12T05:47:50.364Z,6.30
2024-02-12T05:50:18.592Z,6.30
2024-02-12T05:52:47.818Z,6.28
2024-02-12T05:55:15.510Z,6.33
2024-02-12T05:57:43.025Z,6.38
2024-02-12T06:00:11.827Z,6.40
2024-02-12T06:02:39.497Z,6.40
2024-02-12T06:05:07.259Z,6.40
2024-02-12T06:07:34.943Z,6.37
2024-02-12T06:10:04.865Z,6.38
2024-02-12T06:12:32.422Z,6.41
2024-02-12T06:14:59.972Z,6.44
2024-02-12T06:17:27.457Z,6.47
2024-02-12T06:19:55.164Z,6.50
2024-02-12T06:22:22.772Z,6.52
2024-02-12T06:24:50.416Z,6.51
2024-02-12T06:27:18.440Z,6.55
2024-02-12T06:29:46.239Z,6.64
2024-02-12T06:32:16.531Z,6.71
2024-02-12T06:34:49.844Z,6.75
2024-02-12T06:37:18.459Z,6.78
2024-02-12T06:39:46.044Z,6.80
2024-02-12T06:42:14.058Z,6.84
2024-02-12T06:44:42.140Z,6.87
2024-02-12T06:47:10.989Z,6.89
2024-02-12T06:49:38.808Z,6.93
2024-02-12T06:52:06.714Z,6.95
2024-02-12T06:54:35.568Z,6.93
2024-02-12T06:57:03.138Z,6.93
2024-02-12T06:59:33.183Z,6.98
2024-02-12T07:02:01.025Z,7.07
2024-02-12T07:04:28.732Z,7.18
2024-02-12T07:06:56.758Z,7.24
2024-02-12T07:09:26.331Z,7.20
2024-02-12T07:11:54.572Z,7.09
2024-02-12T07:14:24.315Z,7.00
2024-02-12T07:16:58.687Z,7.02
2024-02-12T07:19:27.609Z,7.11
2024-02-12T07:21:55.096Z,7.20
2024-02-12T07:24:23.708Z,7.31
2024-02-12T07:26:51.325Z,7.44
2024-02-12T07:29:18.958Z,7.55
2024-02-12T07:31:46.888Z,7.70
2024-02-12T07:34:14.741Z,7.86
2024-02-12T07:36:45.965Z,7.98
2024-02-12T07:39:20.498Z,8.09
2024-02-12T07:41:49.205Z,8.20
2024-02-12T07:44:16.884Z,8.29
2024-02-12T07:46:48.166Z,8.40
2024-02-12T07:49:16.731Z,8.51
2024-02-12T07:51:46.703Z,8.60
2024-02-12T07:54:16.854Z,8.67
2024-02-12T07:56:46.546Z,8.75
2024-02-12T07:59:22.837Z,8.80
2024-02-12T08:01:54.914Z,8.83
2024-02-12T08:04:23.560Z,8.87
2024-02-12T08:06:51.469Z,8.92
2024-02-12T08:09:24.637Z,8.99
2024-02-12T08:11:52.054Z,9.05
2024-02-12T08:14:19.774Z,9.09
2024-02-12T08:16:47.507Z,9.12
2024-02-12T08:19:20.211Z,9.15
2024-02-12T08:21:48.325Z,9.15
2024-02-12T08:24:18.282Z,9.13
2024-02-12T08:26:48.834Z,9.13
2024-02-12T08:29:16.668Z,9.18
2024-02-12T08:32:02.373Z,9.24
2024-02-12T08:34:34.348Z,9.27
2024-02-12T08:37:05.630Z,9.31
2024-02-12T08:46:55.740Z,9.46
2024-02-12T08:49:47.037Z,9.53
2024-02-12T08:52:20.253Z,9.60
2024-02-12T08:54:48.298Z,9.71
2024-02-12T08:57:16.255Z,9.81
2024-02-12T08:59:45.415Z,9.89
2024-02-12T09:02:12.996Z,9.96
2024-02-12T09:04:43.895Z,10.01
2024-02-12T09:07:13.091Z,10.05
2024-02-12T09:09:41.582Z,10.11
2024-02-12T09:12:09.385Z,10.18
2024-02-12T09:14:36.942Z,10.24
2024-02-12T09:17:06.049Z,10.29
2024-02-12T09:19:34.110Z,10.31
2024-02-12T09:22:04.524Z,10.34
2024-02-12T09:24:42.857Z,10.36
2024-02-12T09:27:13.569Z,10.37
2024-02-12T09:29:49.070Z,10.40
2024-02-12T09:32:16.932Z,10.45
2024-02-12T09:35:10.788Z,10.52
2024-02-12T09:37:38.688Z,10.56
2024-02-12T09:40:08.673Z,10.57
2024-02-12T09:42:40.850Z,10.60
2024-02-12T09:45:10.783Z,10.63
2024-02-12T09:47:38.716Z,10.69
2024-02-12T09:50:11.042Z,10.79
2024-02-12T09:52:41.480Z,10.88
2024-02-12T09:55:11.148Z,10.94
2024-02-12T09:57:42.654Z,10.98
2024-02-12T10:00:12.417Z,11.01
2024-02-12T10:02:45.487Z,11.03
2024-02-12T10:05:25.226Z,11.05
2024-02-12T10:07:53.117Z,11.08
2024-02-12T10:10:20.681Z,11.13
2024-02-12T10:12:53.615Z,11.20
2024-02-12T10:15:21.596Z,11.29
2024-02-12T10:17:49.390Z,11.37
2024-02-12T10:20:17.386Z,11.39
2024-02-12T10:22:46.102Z,11.37
2024-02-12T10:25:20.873Z,11.33
2024-02-12T10:27:50.979Z,11.30
2024-02-12T10:30:19.377Z,11.28
2024-02-12T10:32:51.411Z,11.31
2024-02-12T10:35:25.124Z,11.31
2024-02-12T10:38:12.810Z,11.32
2024-02-12T10:41:05.652Z,11.29
2024-02-12T10:43:36.654Z,11.30
2024-02-12T10:46:08.289Z,11.31
2024-02-12T10:48:39.978Z,11.32
2024-02-12T10:51:09.500Z,11.32
2024-02-12T10:53:37.997Z,11.32
2024-02-12T10:56:08.476Z,11.36
2024-02-12T10:58:37.495Z,11.41
2024-02-12T11:01:12.594Z,11.44
2024-02-12T11:03:41.301Z,11.47
2024-02-12T11:06:12.906Z,11.48
2024-02-12T11:08:44.979Z,11.46
2024-02-12T11:11:20.342Z,11.43
2024-02-12T11:13:49.793Z,11.41
2024-02-12T11:16:24.614Z,11.40
2024-02-12T11:18:56.136Z,11.43
2024-02-12T11:21:27.516Z,11.44
2024-02-12T11:24:08.796Z,11.45
2024-02-12T11:26:47.581Z,11.46
2024-02-12T11:29:17.432Z,11.46
2024-02-12T11:31:55.477Z,11.46
2024-02-12T11:34:23.007Z,11.47
2024-02-12T11:37:00.498Z,11.47
2024-02-12T11:39:28.261Z,11.51
2024-02-12T11:41:55.909Z,11.58
2024-02-12T11:44:23.400Z,11.64
2024-02-12T11:46:57.654Z,11.68
2024-02-12T11:49:28.097Z,11.71
2024-02-12T11:51:59.040Z,11.73
2024-02-12T11:54:28.052Z,11.75
2024-02-12T11:56:55.767Z,11.76
2024-02-12T11:59:23.823Z,11.77
2024-02-12T12:01:51.866Z,11.80
2024-02-12T12:04:21.908Z,11.85
2024-02-12T12:06:52.142Z,11.91
2024-02-12T12:09:24.963Z,11.96
2024-02-12T12:11:53.992Z,12.00
2024-02-12T12:14:23.500Z,12.03
2024-02-12T12:17:28.172Z,12.05
2024-02-12T12:19:43.683Z,12.08
2024-02-12T12:22:21.552Z,12.12
2024-02-12T12:24:49.147Z,12.15
2024-02-12T12:27:26.465Z,12.17
2024-02-12T12:29:55.870Z,12.22
2024-02-12T12:32:26.716Z,12.32
2024-02-12T12:34:57.125Z,12.39
2024-02-12T12:37:26.011Z,12.45
2024-02-12T12:39:54.814Z,12.50
2024-02-12T12:42:22.319Z,12.54
2024-02-12T12:44:53.445Z,12.57
2024-02-12T12:47:21.033Z,12.61
2024-02-12T12:49:49.741Z,12.65
2024-02-12T12:52:22.277Z,12.70
2024-02-12T12:54:52.203Z,12.74
2024-02-12T12:57:20.501Z,12.77
2024-02-12T12:59:48.046Z,12.84
2024-02-12T13:02:15.602Z,12.93
2024-02-12T13:04:43.715Z,12.98
2024-02-12T13:07:14.845Z,13.00
2024-02-12T13:09:45.491Z,13.02
2024-02-12T13:12:14.058Z,13.00
2024-02-12T13:14:53.996Z,12.99
2024-02-12T13:17:24.161Z,12.96
2024-02-12T13:19:54.393Z,12.96
2024-02-12T13:22:24.360Z,12.98
2024-02-12T13:24:55.730Z,12.97
2024-02-12T13:27:25.176Z,12.99
2024-02-12T13:29:54.407Z,13.05
2024-02-12T13:32:22.029Z,13.13
2024-02-12T13:34:50.110Z,13.15
2024-02-12T13:37:18.759Z,13.16
2024-02-12T13:39:46.576Z,13.16
2024-02-12T13:42:16.347Z,13.14
2024-02-12T13:44:46.902Z,13.13
2024-02-12T13:47:14.798Z,13.10
2024-02-12T13:49:44.951Z,13.07
2024-02-12T13:52:12.580Z,13.07
2024-02-12T13:54:44.378Z,13.09
2024-02-12T13:57:12.520Z,13.09
2024-02-12T13:59:45.229Z,13.05
2024-02-12T14:02:15.013Z,13.01
2024-02-12T14:04:45.735Z,12.96
2024-02-12T14:07:15.663Z,12.98
2024-02-12T14:09:44.033Z,13.01
2024-02-12T14:12:18.330Z,13.01
2024-02-12T14:14:49.368Z,12.97
2024-02-12T14:17:16.874Z,12.91
2024-02-12T14:19:47.071Z,12.87
2024-02-12T14:22:14.776Z,12.89
2024-02-12T14:24:42.330Z,12.94
2024-02-12T14:27:11.283Z,12.96
2024-02-12T14:29:40.514Z,12.92
2024-02-12T14:32:38.296Z,12.88
2024-02-12T14:34:57.927Z,12.82
2024-02-12T14:37:25.703Z,12.83
2024-02-12T14:39:53.307Z,12.88
2024-02-12T14:42:24.448Z,12.88
2024-02-12T14:44:53.160Z,12.86
2024-02-12T14:47:21.546Z,12.81
2024-02-12T14:49:49.984Z,12.76
2024-02-12T14:52:18.612Z,12.71
2024-02-12T14:54:46.587Z,12.66
2024-02-12T14:57:15.427Z,12.60
2024-02-12T14:59:43.069Z,12.61
2024-02-12T15:02:15.396Z,12.66
2024-02-12T15:04:46.561Z,12.67
2024-02-12T15:07:19.936Z,12.63
2024-02-12T15:09:48.142Z,12.60
2024-02-12T15:12:21.786Z,12.55
2024-02-12T15:14:50.267Z,12.51
2024-02-12T15:17:18.696Z,12.46
2024-02-12T15:19:49.651Z,12.40
2024-02-12T15:22:26.196Z,12.35
2024-02-12T15:24:54.427Z,12.35
2024-02-12T15:27:22.096Z,12.35
2024-02-12T15:29:49.746Z,12.35
2024-02-12T15:32:17.363Z,12.32
2024-02-12T15:34:48.287Z,12.27
2024-02-12T15:37:19.345Z,12.22
2024-02-12T15:39:47.821Z,12.16
2024-02-12T15:42:18.673Z,12.11
2024-02-12T15:44:47.313Z,12.06
2024-02-12T15:47:14.925Z,12.01
2024-02-12T15:49:42.603Z,11.96
2024-02-12T15:52:12.273Z,11.98
2024-02-12T15:54:51.049Z,12.01
2024-02-12T15:57:19.011Z,11.99
2024-02-12T15:59:46.786Z,11.93
2024-02-12T16:02:15.948Z,11.87
2024-02-12T16:04:45.688Z,11.80
2024-02-12T16:07:14.123Z,11.74
2024-02-12T16:09:42.090Z,11.67
2024-02-12T16:12:14.675Z,11.59
2024-02-12T16:14:45.491Z,11.52
2024-02-12T16:17:15.286Z,11.52
2024-02-12T16:19:44.190Z,11.55
2024-02-12T16:22:11.978Z,11.53
2024-02-12T16:24:39.673Z,11.47
2024-02-12T16:27:08.579Z,11.40
2024-02-12T16:29:36.408Z,11.34
2024-02-12T16:32:04.876Z,11.27
2024-02-12T16:34:32.507Z,11.20
2024-02-12T16:37:00.409Z,11.18
2024-02-12T16:39:28.986Z,11.19
2024-02-12T16:41:57.121Z,11.16
2024-02-12T16:44:27.963Z,11.10
2024-02-12T16:46:55.443Z,11.02
2024-02-12T16:49:23.113Z,10.93
2024-02-12T16:51:53.603Z,10.84
2024-02-12T16:54:21.649Z,10.75
2024-02-12T16:56:49.638Z,10.72
2024-02-12T17:00:38.302Z,10.73
2024-02-12T17:03:06.157Z,10.62
2024-02-12T17:05:34.400Z,10.53
2024-02-12T17:08:07.468Z,10.44
2024-02-12T17:10:37.889Z,10.35
2024-02-12T17:13:06.771Z,10.26
2024-02-12T17:15:38.289Z,10.25
2024-02-12T17:18:10.797Z,10.29
2024-02-12T17:20:39.013Z,10.29
2024-02-12T17:23:07.443Z,10.24
2024-02-12T17:25:35.348Z,10.16
2024-02-12T17:28:04.794Z,10.02
2024-02-12T17:30:32.526Z,9.93
2024-02-12T17:33:01.710Z,9.91
2024-02-12T17:35:29.631Z,9.89
2024-02-12T17:37:57.436Z,9.87
2024-02-12T17:40:24.978Z,9.85
2024-02-12T17:42:53.601Z,9.84
2024-02-12T17:45:21.184Z,9.82
2024-02-12T17:47:48.858Z,9.87
2024-02-12T17:50:16.396Z,9.93
2024-02-12T17:52:44.383Z,9.96
2024-02-12T17:55:12.001Z,9.95
2024-02-12T17:57:39.524Z,9.93
2024-02-12T18:00:13.701Z,9.88
2024-02-12T18:02:41.743Z,9.86
2024-02-12T18:05:14.091Z,9.88
2024-02-12T18:07:42.029Z,9.92
2024-02-12T18:10:15.282Z,9.91
2024-02-12T18:12:46.413Z,9.87
2024-02-12T18:15:15.302Z,9.83
2024-02-12T18:17:43.920Z,9.78
2024-02-12T18:20:12.610Z,9.71
2024-02-12T18:22:40.370Z,9.71
2024-02-12T18:25:13.099Z,9.77
2024-02-12T18:27:41.033Z,9.80
2024-02-12T18:30:09.116Z,9.81
2024-02-12T18:32:38.622Z,9.80
2024-02-12T18:35:07.561Z,9.78
2024-02-12T18:37:38.798Z,9.78
2024-02-12T18:47:49.570Z,9.89
2024-02-12T18:50:18.824Z,9.83
2024-02-12T18:52:50.131Z,9.81
2024-02-12T18:55:18.848Z,9.79
2024-02-12T18:57:52.169Z,9.82
2024-02-12T19:00:20.675Z,9.86
2024-02-12T19:02:50.303Z,9.86
2024-02-12T19:05:26.075Z,9.83
2024-02-12T19:07:53.956Z,9.81
2024-02-12T19:10:21.483Z,9.79
2024-02-12T19:12:50.681Z,9.78
2024-02-12T19:15:19.137Z,9.82
2024-02-12T19:17:47.359Z,9.87
2024-02-12T19:20:18.340Z,9.88
2024-02-12T19:22:48.317Z,9.87
2024-02-12T19:25:23.979Z,9.85
2024-02-12T19:27:55.014Z,9.83
2024-02-12T19:30:22.901Z,9.87
2024-02-12T19:32:51.803Z,9.93
2024-02-12T19:35:19.847Z,9.94
2024-02-12T19:37:51.958Z,9.92
2024-02-12T19:40:19.501Z,9.89
2024-02-12T19:42:47.489Z,9.88
2024-02-12T19:45:15.693Z,9.87
2024-02-12T19:47:44.089Z,9.91
2024-02-12T19:50:13.080Z,9.98
2024-02-12T19:52:43.433Z,10.01
2024-02-12T19:55:13.660Z,10.00
2024-02-12T20:00:34.876Z,9.97
2024-02-12T20:03:08.316Z,9.98
2024-02-12T20:05:36.394Z,10.01
2024-02-12T20:08:04.802Z,9.97
2024-02-12T20:10:32.407Z,9.93
2024-02-12T20:13:06.056Z,9.90
2024-02-12T20:15:35.740Z,9.89
2024-02-12T20:18:06.878Z,9.91
2024-02-12T20:20:35.129Z,9.97
2024-02-12T20:23:02.947Z,10.00
2024-02-12T20:25:30.626Z,10.03
2024-02-12T20:27:58.280Z,10.03
2024-02-12T20:30:27.403Z,10.02
2024-02-12T20:32:56.023Z,10.05
2024-02-12T20:35:25.732Z,10.10
2024-02-12T20:37:53.695Z,10.11
2024-02-12T20:40:21.320Z,10.08
2024-02-12T20:42:48.932Z,10.00
2024-02-12T20:45:18.971Z,9.92
2024-02-12T20:47:46.998Z,9.89
2024-02-12T20:50:14.893Z,9.92
2024-02-12T20:52:45.463Z,9.91
2024-02-12T20:55:14.791Z,9.87
2024-02-12T20:57:42.663Z,9.84
2024-02-12T21:00:10.831Z,9.84
2024-02-12T21:02:38.410Z,9.86
2024-02-12T21:05:11.220Z,9.86
2024-02-12T21:07:39.041Z,9.83
2024-02-12T21:10:07.208Z,9.77
2024-02-12T21:12:35.867Z,9.72
2024-02-12T21:15:04.766Z,9.74
2024-02-12T21:17:32.895Z,9.78
2024-02-12T21:20:00.579Z,9.79
2024-02-12T21:22:28.244Z,9.78
2024-02-12T21:24:55.774Z,9.74
2024-02-12T21:27:23.288Z,9.70
2024-02-12T21:29:52.014Z,9.72
2024-02-12T21:32:19.811Z,9.77
2024-02-12T21:34:47.646Z,9.75
2024-02-12T21:37:18.776Z,9.72
2024-02-12T21:39:47.115Z,9.64
2024-02-12T21:42:32.566Z,9.60
2024-02-12T21:45:01.986Z,9.61
2024-02-12T21:47:29.911Z,9.66
2024-02-12T21:49:57.836Z,9.67
2024-02-12T21:52:28.290Z,9.61
2024-02-12T21:54:55.928Z,9.54
2024-02-12T21:57:24.527Z,9.49
2024-02-12T21:59:53.584Z,9.49
2024-02-12T22:02:21.655Z,9.54
2024-02-12T22:04:53.640Z,9.55
2024-02-12T22:07:21.768Z,9.52
2024-02-12T22:09:49.836Z,9.45
2024-02-12T22:12:20.089Z,9.44
2024-02-12T22:14:50.014Z,9.47
2024-02-12T22:17:18.045Z,9.45
2024-02-12T22:19:54.553Z,9.39
2024-02-12T22:22:22.602Z,9.33
2024-02-12T22:24:57.296Z,9.37
2024-02-12T22:27:24.971Z,9.42
2024-02-12T22:29:52.554Z,9.41
2024-02-12T22:32:20.111Z,9.36
2024-02-12T22:34:47.883Z,9.32
2024-02-12T22:37:15.704Z,9.33
2024-02-12T22:42:27.177Z,9.39
2024-02-12T22:49:24.127Z,9.27
2024-02-12T22:51:52.055Z,9.31
2024-02-12T22:54:19.697Z,9.30
2024-02-12T22:56:47.316Z,9.24
2024-02-12T22:59:15.008Z,9.17
2024-02-12T23:01:45.082Z,9.16
2024-02-12T23:04:12.640Z,9.17
2024-02-12T23:06:40.246Z,9.14
2024-02-12T23:09:07.983Z,9.10
2024-02-12T23:11:35.988Z,9.04
2024-02-12T23:14:06.266Z,9.05
2024-02-12T23:16:34.061Z,9.05
2024-02-12T23:19:02.340Z,9.04
2024-02-12T23:21:30.077Z,8.98
2024-02-12T23:23:58.014Z,8.94
2024-02-12T23:26:27.866Z,8.93
2024-02-12T23:29:01.725Z,8.96
2024-02-12T23:31:34.449Z,8.96
2024-02-12T23:34:02.478Z,8.94
2024-02-12T23:36:31.276Z,8.88
2024-02-12T23:38:59.029Z,8.82
2024-02-12T23:41:28.341Z,8.83
2024-02-12T23:43:55.862Z,8.88
2024-02-12T23:46:23.412Z,8.90
2024-02-12T23:48:50.996Z,8.86
2024-02-12T23:51:18.615Z,8.82
2024-02-12T23:53:46.254Z,8.84
2024-02-12T23:56:24.380Z,8.88
2024-02-12T23:58:53.292Z,8.89
